createdAt,value
2022-08-21T00:00:44.602Z,69.76
2022-08-21T00:04:57.111Z,69.67
2022-08-21T00:09:05.572Z,69.69
2022-08-21T00:13:11.700Z,69.70
2022-08-21T00:17:14.838Z,69.64
2022-08-21T00:21:18.275Z,69.83
2022-08-21T00:25:24.362Z,69.75
2022-08-21T00:29:31.078Z,69.96
2022-08-21T00:33:34.811Z,70.08
2022-08-21T00:37:37.920Z,70.21
2022-08-21T00:41:41.650Z,70.12
2022-08-21T00:45:46.456Z,70.32
2022-08-21T00:49:49.911Z,70.37
2022-08-21T00:53:58.028Z,70.33
2022-08-21T00:58:06.187Z,70.44
2022-08-21T01:02:14.441Z,70.52
2022-08-21T01:06:18.267Z,70.60
2022-08-21T01:10:24.391Z,70.49
2022-08-21T01:14:28.438Z,70.74
2022-08-21T01:18:33.199Z,70.58
2022-08-21T01:22:37.950Z,70.28
2022-08-21T01:26:41.915Z,70.24
2022-08-21T01:30:45.782Z,70.36
2022-08-21T01:34:51.935Z,70.00
2022-08-21T01:38:57.868Z,70.18
2022-08-21T01:43:01.177Z,70.21
2022-08-21T01:47:08.435Z,70.23
2022-08-21T01:51:12.769Z,70.18
2022-08-21T01:55:18.922Z,70.26
2022-08-21T01:59:23.796Z,70.38
2022-08-21T02:03:35.340Z,70.42
2022-08-21T02:07:40.743Z,70.30
2022-08-21T02:11:45.450Z,70.55
2022-08-21T02:15:49.015Z,70.89
2022-08-21T02:19:52.328Z,70.88
2022-08-21T02:23:55.638Z,70.95
2022-08-21T02:28:01.937Z,71.34
2022-08-21T02:32:05.583Z,71.39
2022-08-21T02:36:10.357Z,71.65
2022-08-21T02:40:14.206Z,71.76
2022-08-21T02:44:19.116Z,72.05
2022-08-21T02:48:25.207Z,72.16
2022-08-21T02:52:28.312Z,72.51
2022-08-21T02:56:31.538Z,72.74
2022-08-21T03:00:37.863Z,73.00
2022-08-21T03:04:45.996Z,73.32
2022-08-21T03:08:50.416Z,73.47
2022-08-21T03:12:53.975Z,73.70
2022-08-21T03:16:58.561Z,73.86
2022-08-21T03:21:01.718Z,74.04
2022-08-21T03:25:06.739Z,74.13
2022-08-21T03:29:10.173Z,74.33
2022-08-21T03:33:15.826Z,74.35
2022-08-21T03:37:19.697Z,74.41
2022-08-21T03:41:22.996Z,74.46
2022-08-21T03:45:26.143Z,74.64
2022-08-21T03:49:30.859Z,74.37
2022-08-21T03:53:35.043Z,74.33
2022-08-21T03:57:38.136Z,74.38
2022-08-21T04:01:42.187Z,74.43
2022-08-21T04:05:47.290Z,74.46
2022-08-21T04:09:50.592Z,74.42
2022-08-21T04:13:53.660Z,74.34
2022-08-21T04:17:57.090Z,74.30
2022-08-21T04:22:01.831Z,74.08
2022-08-21T04:26:07.196Z,74.09
2022-08-21T04:30:12.004Z,74.00
2022-08-21T04:34:15.216Z,73.98
2022-08-21T04:38:20.310Z,73.95
2022-08-21T04:42:23.582Z,74.01
2022-08-21T04:46:26.880Z,74.21
2022-08-21T04:50:33.311Z,74.04
2022-08-21T04:54:42.326Z,74.12
2022-08-21T04:58:45.652Z,74.29
2022-08-21T05:02:50.252Z,74.26
2022-08-21T05:06:55.881Z,74.38
2022-08-21T05:11:00.851Z,73.96
2022-08-21T05:15:04.744Z,73.84
2022-08-21T05:19:08.536Z,73.78
2022-08-21T05:23:14.666Z,74.00
2022-08-21T05:27:19.211Z,73.57
2022-08-21T05:31:23.491Z,73.09
2022-08-21T05:35:27.652Z,72.32
2022-08-21T05:40:21.804Z,72.21
2022-08-21T05:43:55.198Z,72.03
2022-08-21T05:47:58.367Z,71.47
2022-08-21T05:52:01.774Z,70.96
2022-08-21T05:56:06.123Z,70.91
2022-08-21T06:00:13.438Z,70.83
2022-08-21T06:04:17.275Z,70.43
2022-08-21T06:08:21.724Z,70.68
2022-08-21T06:12:25.952Z,70.09
2022-08-21T06:16:31.644Z,69.94
2022-08-21T06:20:35.039Z,69.98
2022-08-21T06:24:38.360Z,70.10
2022-08-21T06:28:42.460Z,69.99
2022-08-21T06:32:47.076Z,70.01
2022-08-21T06:36:50.099Z,69.79
2022-08-21T06:40:53.167Z,69.84
2022-08-21T06:44:56.790Z,69.42
2022-08-21T06:49:01.330Z,69.52
2022-08-21T06:53:07.642Z,69.21
2022-08-21T06:57:10.809Z,69.28
2022-08-21T07:01:14.021Z,69.30
2022-08-21T07:05:18.905Z,68.94
2022-08-21T07:09:24.701Z,68.98
2022-08-21T07:13:28.699Z,68.96
2022-08-21T07:17:31.953Z,69.10
2022-08-21T07:21:36.942Z,69.34
2022-08-21T07:25:40.701Z,69.53
2022-08-21T07:29:45.574Z,69.89
2022-08-21T07:33:49.251Z,69.61
2022-08-21T07:37:54.013Z,69.59
2022-08-21T07:41:57.355Z,69.75
2022-08-21T07:46:00.684Z,69.71
2022-08-21T07:50:03.790Z,69.75
2022-08-21T07:54:09.685Z,69.73
2022-08-21T07:58:20.136Z,70.13
2022-08-21T08:02:26.882Z,71.04
2022-08-21T08:06:30.485Z,71.24
2022-08-21T08:10:35.187Z,71.64
2022-08-21T08:14:38.334Z,72.11
2022-08-21T08:18:43.100Z,71.92
2022-08-21T08:22:50.024Z,71.79
2022-08-21T08:26:58.008Z,71.52
2022-08-21T08:31:02.125Z,71.61
2022-08-21T08:35:05.615Z,71.46
2022-08-21T08:39:08.750Z,71.94
2022-08-21T08:43:15.810Z,71.71
2022-08-21T08:47:20.645Z,72.67
2022-08-21T08:51:27.682Z,72.88
2022-08-21T08:55:35.524Z,72.83
2022-08-21T08:59:43.863Z,73.19
2022-08-21T09:03:50.699Z,74.00
2022-08-21T09:08:15.360Z,74.47
2022-08-21T09:12:41.794Z,75.91
2022-08-21T09:16:51.346Z,75.67
2022-08-21T09:21:10.659Z,76.25
2022-08-21T09:25:27.092Z,75.81
2022-08-21T09:29:33.919Z,76.64
2022-08-21T09:33:38.393Z,76.59
2022-08-21T09:37:52.763Z,76.77
2022-08-21T09:42:01.133Z,76.60
2022-08-21T09:46:08.896Z,76.41
2022-08-21T09:50:19.194Z,76.57
2022-08-21T09:54:33.598Z,76.88
2022-08-21T09:58:38.825Z,76.96
2022-08-21T10:02:41.915Z,76.54
2022-08-21T10:06:46.982Z,76.51
2022-08-21T10:10:56.427Z,76.41
2022-08-21T10:15:09.070Z,76.57
2022-08-21T10:19:24.899Z,76.27
2022-08-21T10:23:44.143Z,76.12
2022-08-21T10:27:59.515Z,76.22
2022-08-21T10:32:25.793Z,76.15
2022-08-21T10:36:39.183Z,76.40
2022-08-21T10:40:52.177Z,76.56
2022-08-21T10:45:06.497Z,76.16
2022-08-21T10:49:21.067Z,76.06
2022-08-21T10:53:37.802Z,75.85
2022-08-21T10:57:48.399Z,75.90
2022-08-21T11:01:59.647Z,75.93
2022-08-21T11:06:11.070Z,76.40
2022-08-21T11:10:20.260Z,76.77
2022-08-21T11:14:32.761Z,76.77
2022-08-21T11:18:39.875Z,75.54
2022-08-21T11:22:56.984Z,75.73
2022-08-21T11:27:08.474Z,74.56
2022-08-21T11:31:29.142Z,74.25
2022-08-21T11:35:39.869Z,73.87
2022-08-21T11:39:54.786Z,73.89
2022-08-21T11:44:11.160Z,72.21
2022-08-21T11:48:31.675Z,71.85
2022-08-21T11:52:40.992Z,70.71
2022-08-21T11:56:50.513Z,70.68
2022-08-21T12:00:58.271Z,70.21
2022-08-21T12:05:08.200Z,69.77
2022-08-21T12:09:28.226Z,69.75
2022-08-21T12:13:40.785Z,69.27
2022-08-21T12:17:56.361Z,67.58
2022-08-21T12:22:11.481Z,68.04
2022-08-21T12:26:36.996Z,67.74
2022-08-21T12:30:42.129Z,67.71
2022-08-21T12:34:51.521Z,67.57
2022-08-21T12:38:59.647Z,67.15
2022-08-21T12:43:04.947Z,67.27
2022-08-21T12:47:17.382Z,67.05
2022-08-21T12:51:26.574Z,67.17
2022-08-21T12:55:33.914Z,66.85
2022-08-21T12:59:40.618Z,67.43
2022-08-21T13:03:44.256Z,68.11
2022-08-21T13:07:49.976Z,68.25
2022-08-21T13:11:55.481Z,68.58
2022-08-21T13:16:00.720Z,68.85
2022-08-21T13:20:08.903Z,68.91
2022-08-21T13:24:41.329Z,68.64
2022-08-21T13:28:45.048Z,68.80
2022-08-21T13:32:52.645Z,68.50
2022-08-21T13:37:01.075Z,68.21
2022-08-21T13:41:09.486Z,67.59
2022-08-21T13:45:21.247Z,67.26
2022-08-21T13:49:31.405Z,67.08
2022-08-21T13:53:37.575Z,67.17
2022-08-21T13:57:41.196Z,67.51
2022-08-21T14:01:55.727Z,67.16
2022-08-21T14:06:00.219Z,66.95
2022-08-21T14:10:07.717Z,66.60
2022-08-21T14:14:22.316Z,66.83
2022-08-21T14:18:27.671Z,66.95
2022-08-21T14:22:34.895Z,66.31
2022-08-21T14:26:45.325Z,66.40
2022-08-21T14:30:51.345Z,66.17
2022-08-21T14:34:58.078Z,65.33
2022-08-21T14:39:02.824Z,64.89
2022-08-21T14:43:06.243Z,64.73
2022-08-21T14:47:10.301Z,64.72
2022-08-21T14:51:15.346Z,63.93
2022-08-21T14:55:20.423Z,63.52
2022-08-21T14:59:24.466Z,62.36
2022-08-21T15:03:28.178Z,62.48
2022-08-21T15:07:32.811Z,62.75
2022-08-21T15:11:42.339Z,62.38
2022-08-21T15:15:49.145Z,62.04
2022-08-21T15:19:52.236Z,62.99
2022-08-21T15:23:56.838Z,62.69
2022-08-21T15:28:00.592Z,62.14
2022-08-21T15:32:18.024Z,61.89
2022-08-21T15:36:21.764Z,62.38
2022-08-21T15:40:26.748Z,62.57
2022-08-21T15:44:31.224Z,62.43
2022-08-21T15:48:34.400Z,62.01
2022-08-21T15:52:38.199Z,62.37
2022-08-21T15:56:48.448Z,62.56
2022-08-21T16:00:51.959Z,62.34
2022-08-21T16:04:55.580Z,62.31
2022-08-21T16:08:58.871Z,61.92
2022-08-21T16:13:08.399Z,62.32
2022-08-21T16:17:11.750Z,62.13
2022-08-21T16:21:15.407Z,61.90
2022-08-21T16:25:19.200Z,62.12
2022-08-21T16:29:24.904Z,62.15
2022-08-21T16:33:33.534Z,62.70
2022-08-21T16:37:36.880Z,62.46
2022-08-21T16:41:40.635Z,63.25
2022-08-21T16:45:45.491Z,63.32
2022-08-21T16:49:51.000Z,63.44
2022-08-21T16:53:54.154Z,63.22
2022-08-21T16:57:58.106Z,63.45
2022-08-21T17:02:03.349Z,63.47
2022-08-21T17:06:11.640Z,63.71
2022-08-21T17:10:17.088Z,63.31
2022-08-21T17:14:22.665Z,62.97
2022-08-21T17:18:27.935Z,63.10
2022-08-21T17:22:31.093Z,63.16
2022-08-21T17:26:34.663Z,62.76
2022-08-21T17:30:42.856Z,62.54
2022-08-21T17:34:48.011Z,62.72
2022-08-21T17:38:51.968Z,62.83
2022-08-21T17:42:55.065Z,62.91
2022-08-21T17:46:58.412Z,62.90
2022-08-21T17:51:03.849Z,63.11
2022-08-21T17:55:07.913Z,62.90
2022-08-21T17:59:11.907Z,62.91
2022-08-21T18:03:18.185Z,62.00
2022-08-21T18:07:32.809Z,60.84
2022-08-21T18:11:37.968Z,59.51
2022-08-21T18:15:44.158Z,58.75
2022-08-21T18:19:49.176Z,58.13
2022-08-21T18:23:55.552Z,57.26
2022-08-21T18:28:08.765Z,57.43
2022-08-21T18:32:26.813Z,57.42
2022-08-21T18:36:35.087Z,57.79
2022-08-21T18:40:45.305Z,57.77
2022-08-21T18:44:50.836Z,57.93
2022-08-21T18:48:55.027Z,57.37
2022-08-21T18:52:59.223Z,57.61
2022-08-21T18:57:05.461Z,57.72
2022-08-21T19:01:08.938Z,57.91
2022-08-21T19:05:14.944Z,58.05
2022-08-21T19:09:20.202Z,58.25
2022-08-21T19:13:28.452Z,58.84
2022-08-21T19:17:31.994Z,58.74
2022-08-21T19:21:35.419Z,59.19
2022-08-21T19:25:41.933Z,59.20
2022-08-21T19:29:46.631Z,59.00
2022-08-21T19:33:55.091Z,59.42
2022-08-21T19:38:00.886Z,59.32
2022-08-21T19:42:04.052Z,58.67
2022-08-21T19:46:09.016Z,59.01
2022-08-21T19:50:18.092Z,59.47
2022-08-21T19:54:27.822Z,59.95
2022-08-21T19:58:36.373Z,60.45
2022-08-21T20:02:47.894Z,60.78
2022-08-21T20:06:51.535Z,61.21
2022-08-21T20:10:58.089Z,61.78
2022-08-21T20:15:03.282Z,62.48
2022-08-21T20:19:13.792Z,63.26
2022-08-21T20:23:18.450Z,63.81
2022-08-21T20:31:56.727Z,65.58
2022-08-21T20:36:01.465Z,65.78
2022-08-21T20:40:10.069Z,66.94
2022-08-21T20:44:14.874Z,68.05
2022-08-21T20:48:23.806Z,69.16
2022-08-21T20:52:28.779Z,69.51
2022-08-21T20:56:42.262Z,70.33
2022-08-21T21:00:46.044Z,70.85
2022-08-21T21:04:58.720Z,71.62
2022-08-21T21:09:10.774Z,72.05
2022-08-21T21:13:21.044Z,72.38
2022-08-21T21:17:29.438Z,73.35
2022-08-21T21:21:36.868Z,73.66
2022-08-21T21:25:53.942Z,74.49
2022-08-21T21:30:03.669Z,74.70
2022-08-21T21:34:08.926Z,75.36
2022-08-21T21:38:26.131Z,75.60
2022-08-21T21:42:55.594Z,75.80
2022-08-21T21:47:03.815Z,76.28
2022-08-21T21:51:15.764Z,76.68
2022-08-21T21:55:33.674Z,76.75
2022-08-21T21:59:54.906Z,76.91
2022-08-21T22:04:03.702Z,77.08
2022-08-21T22:08:15.192Z,77.35
2022-08-21T22:12:42.197Z,77.54
2022-08-21T22:16:54.849Z,77.65
2022-08-21T22:21:03.682Z,77.91
2022-08-21T22:25:16.586Z,77.76
2022-08-21T22:29:24.056Z,77.72
2022-08-21T22:33:30.500Z,77.77
2022-08-21T22:37:38.726Z,77.61
2022-08-21T22:41:44.656Z,77.72
2022-08-21T22:46:00.719Z,78.14
2022-08-21T22:50:08.447Z,78.40
2022-08-21T22:54:22.943Z,78.37
2022-08-21T22:58:29.426Z,78.43
2022-08-21T23:02:39.199Z,78.66
2022-08-21T23:06:46.654Z,79.19
2022-08-21T23:10:50.688Z,79.47
2022-08-21T23:14:54.928Z,79.71
2022-08-21T23:19:08.312Z,79.88
2022-08-21T23:23:23.407Z,80.30
2022-08-21T23:27:38.203Z,80.25
2022-08-21T23:31:47.894Z,80.38
2022-08-21T23:36:21.254Z,80.75
2022-08-21T23:49:49.497Z,80.84
2022-08-21T23:54:09.946Z,81.08
2022-08-21T23:58:28.982Z,81.24
